Metar z połowy godziny Komunikat METAR ze strony awiacja.imgw.pl Metar G30 EPLY METAR EPLY 240430Z VRB02KT 8000 BKN050 11/10 Q1015 RMK 113 091 7/7=